createdAt,value
2024-01-06T00:00:00.485Z,95
2024-01-06T00:10:00.417Z,95
2024-01-06T00:20:00.513Z,95
2024-01-06T00:30:00.433Z,95
2024-01-06T00:40:00.343Z,95
2024-01-06T00:50:00.319Z,96
2024-01-06T01:00:00.411Z,96
2024-01-06T01:10:00.346Z,96
2024-01-06T01:20:00.508Z,97
2024-01-06T01:30:00.478Z,97
2024-01-06T01:40:00.338Z,97
2024-01-06T01:50:00.459Z,97
2024-01-06T02:00:00.357Z,97
2024-01-06T02:10:00.475Z,97
2024-01-06T02:20:00.517Z,97
2024-01-06T02:30:00.449Z,97
2024-01-06T02:40:00.352Z,97
2024-01-06T02:50:00.493Z,97
2024-01-06T03:00:00.460Z,98
2024-01-06T03:10:00.355Z,98
2024-01-06T03:20:00.626Z,98
2024-01-06T03:30:00.379Z,98
2024-01-06T03:40:00.429Z,97
2024-01-06T03:50:00.337Z,97
2024-01-06T04:00:00.368Z,97
2024-01-06T04:10:00.427Z,97
2024-01-06T04:20:00.322Z,97
2024-01-06T04:30:00.390Z,97
2024-01-06T04:40:00.438Z,97
2024-01-06T04:50:00.480Z,97
2024-01-06T05:00:00.322Z,97
2024-01-06T05:10:00.329Z,97
2024-01-06T05:20:00.322Z,98
2024-01-06T05:30:00.461Z,98
2024-01-06T05:40:00.456Z,98
2024-01-06T05:50:00.409Z,98
2024-01-06T06:00:00.487Z,98
2024-01-06T06:10:00.524Z,98
2024-01-06T06:20:00.407Z,97
2024-01-06T06:30:00.337Z,97
2024-01-06T06:40:00.412Z,97
2024-01-06T06:50:00.379Z,97
2024-01-06T07:00:00.339Z,97
2024-01-06T07:10:00.394Z,96
2024-01-06T07:20:00.335Z,96
2024-01-06T07:30:00.445Z,96
2024-01-06T07:40:00.519Z,96
2024-01-06T07:50:00.479Z,96
2024-01-06T08:00:03.406Z,96
2024-01-06T08:10:00.513Z,96
2024-01-06T08:20:00.328Z,96
2024-01-06T08:30:00.457Z,96
2024-01-06T08:40:00.608Z,96
2024-01-06T08:50:00.642Z,96
2024-01-06T09:00:00.564Z,96
2024-01-06T09:10:00.419Z,96
2024-01-06T09:20:00.346Z,96
2024-01-06T09:30:00.393Z,96
2024-01-06T09:40:00.500Z,95
2024-01-06T09:50:00.393Z,94
2024-01-06T10:00:00.481Z,94
2024-01-06T10:10:00.504Z,93
2024-01-06T10:20:00.779Z,93
2024-01-06T10:30:00.339Z,93
2024-01-06T10:40:00.563Z,93
2024-01-06T10:50:01.993Z,93
2024-01-06T11:00:00.424Z,93
2024-01-06T11:10:00.623Z,93
2024-01-06T11:20:00.599Z,93
2024-01-06T11:30:00.321Z,93
2024-01-06T11:40:00.449Z,93
2024-01-06T11:50:00.410Z,92
2024-01-06T12:00:00.338Z,92
2024-01-06T12:10:00.508Z,93
2024-01-06T12:20:00.474Z,93
2024-01-06T12:30:00.446Z,93
2024-01-06T12:40:00.518Z,93
2024-01-06T12:50:00.323Z,93
2024-01-06T13:00:00.328Z,93
2024-01-06T13:10:00.472Z,93
2024-01-06T13:20:00.586Z,92
2024-01-06T13:30:00.352Z,92
2024-01-06T13:40:00.471Z,92
2024-01-06T13:50:00.659Z,91
2024-01-06T14:00:00.364Z,92
2024-01-06T14:10:00.557Z,92
2024-01-06T14:20:00.719Z,91
2024-01-06T14:30:00.496Z,91
2024-01-06T14:40:00.390Z,91
2024-01-06T14:50:00.492Z,91
2024-01-06T15:00:00.463Z,91
2024-01-06T15:10:03.816Z,91
2024-01-06T15:20:00.395Z,91
2024-01-06T15:30:00.322Z,90
2024-01-06T15:40:00.407Z,90
2024-01-06T15:50:00.328Z,91
2024-01-06T16:00:00.291Z,91
2024-01-06T16:10:00.384Z,91
2024-01-06T16:20:02.023Z,91
2024-01-06T16:30:00.218Z,91
2024-01-06T16:40:00.470Z,91
2024-01-06T16:50:00.235Z,91
2024-01-06T17:00:00.224Z,91
2024-01-06T17:10:00.558Z,92
2024-01-06T17:20:00.374Z,92
2024-01-06T17:30:00.308Z,92
2024-01-06T17:40:00.382Z,92
2024-01-06T17:50:00.356Z,91
2024-01-06T18:00:00.273Z,89
2024-01-06T18:10:00.423Z,88
2024-01-06T18:20:00.310Z,89
2024-01-06T18:30:00.322Z,89
2024-01-06T18:40:00.520Z,89
2024-01-06T18:50:00.457Z,89
2024-01-06T19:00:00.350Z,90
2024-01-06T19:10:00.409Z,90
2024-01-06T19:20:00.378Z,90
2024-01-06T19:30:00.226Z,90
2024-01-06T19:40:00.462Z,90
2024-01-06T19:50:00.346Z,90
2024-01-06T20:00:00.279Z,90
2024-01-06T20:10:00.349Z,91
2024-01-06T20:20:00.499Z,91
2024-01-06T20:30:00.292Z,91
2024-01-06T20:40:00.464Z,92
2024-01-06T20:50:00.241Z,92
2024-01-06T21:00:00.419Z,92
2024-01-06T21:10:00.444Z,93
2024-01-06T21:30:00.386Z,94
2024-01-06T21:40:00.383Z,94
2024-01-06T21:50:00.219Z,94
2024-01-06T22:00:01.649Z,93
2024-01-06T22:10:00.432Z,93
2024-01-06T22:20:00.253Z,93
2024-01-06T22:30:00.308Z,93
2024-01-06T22:40:00.380Z,94
2024-01-06T22:50:00.277Z,94
2024-01-06T23:00:00.390Z,95
2024-01-06T23:10:00.392Z,95
2024-01-06T23:20:00.342Z,96
2024-01-06T23:30:00.326Z,96
2024-01-06T23:40:00.546Z,96
2024-01-06T23:50:00.214Z,96
